Byron, MI (48418)

3:37 PM EDT on September 03, 2015 (GMT -0400)
Chestnut Grove | | Change Station
CLOSE
Current Station
Personal Weather Station
Location: Linden, MI
Elevation: 872 ft
Nearby Weather Stations

Elev 872 ft 42.81 °N, 83.80 °W | Updated 7 seconds ago

Rain
Rain
74.6 °F
Feels Like 75 °F
N
1.0
Wind Variable Wind from SE
Gusts 5.0 mph

Today
High -- | Low -- °F
--% Chance of Precip.
Yesterday
High -- | Low -- °F
Precip. -- in
7:02 AM 8:07 PM
Waning Gibbous, 67% visible
Pressure 29.94 in
Visibility 10.0 miles
Clouds Scattered Clouds 9000 ft
Heat Index 75 °F
Dew Point 69 °F
Humidity 82%
Rainfall 0.00 in
Snow Depth Not available.
UV 6 out of 12
Pollen 9.70 out of 12
Air Quality Not available.
Flu Activity Not available.
METAR KOZW 031915Z AUTO 05005KT 10SM SCT090 24/22 A2994 RMK AO2 T02420217
Pressure 29.94 in
Visibility 10.0 miles
Clouds Scattered Clouds 9000 ft
Heat Index 75 °F
Dew Point 69 °F
Humidity 82%
Rainfall 0.00 in
Snow Depth Not available.
UV 6 out of 12
Pollen 9.70 out of 12
Air Quality Not available.
Flu Activity Not available.
METAR KOZW 031915Z AUTO 05005KT 10SM SCT090 24/22 A2994 RMK AO2 T02420217

10-Day Weather Forecast

×

Almanac

Astronomy

Sep. 03, 2015 Rise Set
Actual Time
Civil Twilight
Nautical Twilight
Astronomical Twilight
Moon
Length of Visible Light
Length of Day
Tomorrow will be .
, % of the Moon is Illuminated

Today's Extremes

State Highs State Lows

Community

WunderPhotos

Upload Photos

1,852,018 photos uploaded!

WunderBlogs® & News

Nearby

Air Quality

  Air Quality AQ Index Pollutant
Not available.

Snow Depth

Station Depth Elevation

Earthquake Activity

City Distance Mag. Time & Date
Minimum magnitude displayed is 2.5.

Coastal Water Temperatures

Place Temperature

Stations

Nearby Weather Stations

Station Location Temp. Windchill Dew Point Humidity Wind Precip. Elev Updated Type